createdAt,value
2023-01-29T00:01:24.835Z,48.47
2023-01-29T00:03:52.388Z,78.03
2023-01-29T00:06:19.592Z,48.20
2023-01-29T00:08:46.878Z,41.67
2023-01-29T00:11:14.071Z,32.90
2023-01-29T00:13:41.205Z,29.33
2023-01-29T00:16:08.414Z,25.27
2023-01-29T00:18:38.676Z,21.90
2023-01-29T00:21:09.405Z,21.53
2023-01-29T00:23:36.514Z,16.47
2023-01-29T00:26:03.673Z,17.73
2023-01-29T00:28:30.806Z,17.23
2023-01-29T00:30:58.047Z,16.20
2023-01-29T00:33:25.278Z,16.67
2023-01-29T00:35:52.463Z,19.70
2023-01-29T00:38:19.621Z,23.47
2023-01-29T00:41:05.277Z,25.43
2023-01-29T00:43:51.268Z,21.50
2023-01-29T00:46:18.432Z,20.87
2023-01-29T00:48:45.571Z,21.13
2023-01-29T00:51:12.674Z,16.57
2023-01-29T00:53:39.816Z,17.83
2023-01-29T00:56:07.141Z,16.87
2023-01-29T00:58:34.500Z,16.53
2023-01-29T01:01:02.439Z,15.60
2023-01-29T01:03:29.884Z,17.17
2023-01-29T01:06:09.722Z,16.83
2023-01-29T01:08:55.633Z,18.07
2023-01-29T01:11:22.871Z,17.03
2023-01-29T01:13:50.017Z,18.73
2023-01-29T01:16:18.607Z,23.67
2023-01-29T01:18:45.778Z,19.30
2023-01-29T01:21:12.939Z,20.03
2023-01-29T01:23:40.071Z,12.97
2023-01-29T01:26:09.546Z,13.70
2023-01-29T01:28:36.731Z,12.50
2023-01-29T01:31:13.471Z,12.23
2023-01-29T01:33:40.810Z,14.93
2023-01-29T01:36:09.812Z,14.00
2023-01-29T01:38:44.585Z,13.30
2023-01-29T01:41:15.203Z,10.53
2023-01-29T01:43:51.547Z,8.63
2023-01-29T01:46:18.713Z,7.63
2023-01-29T01:48:46.042Z,7.87
2023-01-29T01:51:13.215Z,8.80
2023-01-29T01:53:41.156Z,10.83
2023-01-29T01:56:13.889Z,7.33
2023-01-29T01:58:41.822Z,7.13
2023-01-29T02:01:09.020Z,7.47
2023-01-29T02:04:05.791Z,7.13
2023-01-29T02:06:51.772Z,6.70
2023-01-29T02:09:36.286Z,6.80
2023-01-29T02:12:04.315Z,6.57
2023-01-29T02:14:32.134Z,8.50
2023-01-29T02:17:01.309Z,9.03
2023-01-29T02:19:39.602Z,8.87
2023-01-29T02:22:07.710Z,12.57
2023-01-29T02:24:40.845Z,11.67
2023-01-29T02:27:17.491Z,9.87
2023-01-29T02:29:56.769Z,8.10
2023-01-29T02:32:39.164Z,8.03
2023-01-29T02:35:24.785Z,7.73
2023-01-29T02:37:54.735Z,7.10
2023-01-29T02:40:32.202Z,6.83
2023-01-29T02:43:18.183Z,7.30
2023-01-29T02:45:47.248Z,6.20
2023-01-29T02:48:17.401Z,6.63
2023-01-29T02:50:46.221Z,7.37
2023-01-29T02:53:16.296Z,7.63
2023-01-29T02:56:01.605Z,8.10
2023-01-29T02:58:43.260Z,8.07
2023-01-29T03:01:30.757Z,10.70
2023-01-29T03:03:59.785Z,10.07
2023-01-29T03:06:33.901Z,10.07
2023-01-29T03:09:11.512Z,8.90
2023-01-29T03:11:42.819Z,8.20
2023-01-29T03:14:13.299Z,8.07
2023-01-29T03:16:41.423Z,6.40
2023-01-29T03:19:20.953Z,6.67
2023-01-29T03:22:08.516Z,6.03
2023-01-29T03:24:54.556Z,6.40
2023-01-29T03:27:41.317Z,6.73
2023-01-29T03:30:27.285Z,6.83
2023-01-29T03:32:54.471Z,16.00
2023-01-29T03:35:36.870Z,10.53
2023-01-29T03:38:04.843Z,7.43
2023-01-29T03:40:35.288Z,8.23
2023-01-29T03:43:08.424Z,8.37
2023-01-29T03:45:37.704Z,9.23
2023-01-29T03:48:17.064Z,9.40
2023-01-29T03:50:52.991Z,10.20
2023-01-29T03:53:29.228Z,14.13
2023-01-29T03:56:02.383Z,13.53
2023-01-29T03:58:36.223Z,10.50
2023-01-29T04:01:04.225Z,9.23
2023-01-29T04:03:40.564Z,8.83
2023-01-29T04:06:16.799Z,9.33
2023-01-29T04:09:04.239Z,8.47
2023-01-29T04:11:31.627Z,10.00
2023-01-29T04:13:58.771Z,10.57
2023-01-29T04:16:35.797Z,8.90
2023-01-29T04:19:02.926Z,10.47
2023-01-29T04:21:31.985Z,9.43
2023-01-29T04:23:59.227Z,9.30
2023-01-29T04:26:29.415Z,11.00
2023-01-29T04:28:59.363Z,9.27
2023-01-29T04:31:29.194Z,12.27
2023-01-29T04:34:09.412Z,11.17
2023-01-29T04:36:39.583Z,10.60
2023-01-29T04:39:06.720Z,9.13
2023-01-29T04:41:35.116Z,9.20
2023-01-29T04:44:19.556Z,7.20
2023-01-29T04:47:05.548Z,8.77
2023-01-29T04:49:46.749Z,8.53
2023-01-29T04:52:16.901Z,9.27
2023-01-29T04:55:03.093Z,8.67
2023-01-29T04:57:33.935Z,7.90
2023-01-29T05:00:04.123Z,8.23
2023-01-29T05:02:31.292Z,9.73
2023-01-29T05:04:58.552Z,8.20
2023-01-29T05:07:25.690Z,7.03
2023-01-29T05:09:52.911Z,6.97
2023-01-29T05:12:20.037Z,7.40
2023-01-29T05:14:47.555Z,9.00
2023-01-29T05:17:16.049Z,10.57
2023-01-29T05:19:43.200Z,10.00
2023-01-29T05:22:10.963Z,9.47
2023-01-29T05:24:38.082Z,10.23
2023-01-29T05:27:24.018Z,10.53
2023-01-29T05:29:51.131Z,11.23
2023-01-29T05:32:18.242Z,10.87
2023-01-29T05:34:45.444Z,9.37
2023-01-29T05:37:12.603Z,9.03
2023-01-29T05:39:39.728Z,9.67
2023-01-29T05:42:07.538Z,9.80
2023-01-29T05:44:34.669Z,7.83
2023-01-29T05:47:02.822Z,8.90
2023-01-29T05:49:30.000Z,8.10
2023-01-29T05:51:57.164Z,7.40
2023-01-29T05:54:24.294Z,6.73
2023-01-29T05:56:51.440Z,6.53
2023-01-29T05:59:18.631Z,6.90
2023-01-29T06:01:45.792Z,6.57
2023-01-29T06:04:12.985Z,6.93
2023-01-29T06:06:40.095Z,8.50
2023-01-29T06:09:07.234Z,8.87
2023-01-29T06:11:34.391Z,8.57
2023-01-29T06:14:01.523Z,5.90
2023-01-29T06:16:28.739Z,5.83
2023-01-29T06:18:55.947Z,6.27
2023-01-29T06:21:23.083Z,5.43
2023-01-29T06:23:50.198Z,5.00
2023-01-29T06:26:17.374Z,4.90
2023-01-29T06:28:45.920Z,5.10
2023-01-29T06:31:35.236Z,5.23
2023-01-29T06:34:00.286Z,4.93
2023-01-29T06:36:27.487Z,4.93
2023-01-29T06:38:54.636Z,4.77
2023-01-29T06:41:25.511Z,5.13
2023-01-29T06:43:52.877Z,10.33
2023-01-29T06:46:20.015Z,6.77
2023-01-29T06:48:47.177Z,8.37
2023-01-29T06:51:14.326Z,18.33
2023-01-29T06:53:42.814Z,7.93
2023-01-29T06:56:10.577Z,10.30
2023-01-29T06:58:38.328Z,12.40
2023-01-29T07:01:06.389Z,7.17
2023-01-29T07:03:33.607Z,7.27
2023-01-29T07:06:00.766Z,8.37
2023-01-29T07:08:28.493Z,10.43
2023-01-29T07:11:04.852Z,5.10
2023-01-29T07:13:32.003Z,3.90
2023-01-29T07:16:00.316Z,4.87
2023-01-29T07:18:28.094Z,4.50
2023-01-29T07:20:55.312Z,23.33
2023-01-29T07:23:22.483Z,9.27
2023-01-29T07:25:52.697Z,29.70
2023-01-29T07:28:20.644Z,12.80
2023-01-29T07:30:47.856Z,5.20
2023-01-29T07:33:15.073Z,5.67
2023-01-29T07:35:42.881Z,6.37
2023-01-29T07:38:10.536Z,6.67
2023-01-29T07:40:37.729Z,16.83
2023-01-29T07:43:05.614Z,14.70
2023-01-29T07:45:34.266Z,22.97
2023-01-29T07:48:01.444Z,24.57
2023-01-29T07:50:28.792Z,14.37
2023-01-29T07:52:56.035Z,10.00
2023-01-29T07:55:23.254Z,13.03
2023-01-29T07:57:59.614Z,26.83
2023-01-29T08:00:26.877Z,25.60
2023-01-29T08:02:54.072Z,9.70
2023-01-29T08:05:21.246Z,9.33
2023-01-29T08:08:05.775Z,7.83
2023-01-29T08:10:34.072Z,6.53
2023-01-29T08:13:01.994Z,4.80
2023-01-29T08:15:29.155Z,4.40
2023-01-29T08:17:58.022Z,11.13
2023-01-29T08:20:43.442Z,7.63
2023-01-29T08:23:14.526Z,6.03
2023-01-29T08:25:41.821Z,9.57
2023-01-29T08:28:09.817Z,5.40
2023-01-29T08:30:37.051Z,4.90
2023-01-29T08:33:04.567Z,4.10
2023-01-29T08:35:31.917Z,4.47
2023-01-29T08:37:59.922Z,4.50
2023-01-29T08:40:31.813Z,5.27
2023-01-29T08:43:07.839Z,5.90
2023-01-29T08:45:36.801Z,5.60
2023-01-29T08:48:04.023Z,4.77
2023-01-29T08:50:31.933Z,6.20
2023-01-29T08:52:59.483Z,4.60
2023-01-29T08:55:26.949Z,4.03
2023-01-29T08:57:54.070Z,4.80
2023-01-29T09:00:21.450Z,7.77
2023-01-29T09:02:48.666Z,6.67
2023-01-29T09:05:16.127Z,6.53
2023-01-29T09:07:44.052Z,8.63
2023-01-29T09:10:12.294Z,8.07
2023-01-29T09:12:39.470Z,5.77
2023-01-29T09:15:06.853Z,5.13
2023-01-29T09:17:33.980Z,8.93
2023-01-29T09:20:01.135Z,8.57
2023-01-29T09:22:28.308Z,11.47
2023-01-29T09:24:55.803Z,10.97
2023-01-29T09:27:22.973Z,7.13
2023-01-29T09:29:50.106Z,7.17
2023-01-29T09:32:31.875Z,7.87
2023-01-29T09:35:04.649Z,8.90
2023-01-29T09:37:31.767Z,7.87
2023-01-29T09:39:58.871Z,7.73
2023-01-29T09:42:27.790Z,8.07
2023-01-29T09:45:05.867Z,8.00
2023-01-29T09:47:34.031Z,8.20
2023-01-29T09:50:01.181Z,7.70
2023-01-29T09:52:31.975Z,7.10
2023-01-29T09:55:07.553Z,7.27
2023-01-29T09:57:47.926Z,6.53
2023-01-29T10:00:25.061Z,6.23
2023-01-29T10:03:04.386Z,6.67
2023-01-29T10:05:38.248Z,7.30
2023-01-29T10:08:15.124Z,12.20
2023-01-29T10:10:48.366Z,5.57
2023-01-29T10:13:25.289Z,5.23
2023-01-29T10:16:28.132Z,5.80
2023-01-29T10:19:07.734Z,5.97
2023-01-29T10:21:53.508Z,5.67
2023-01-29T10:24:29.660Z,7.33
2023-01-29T10:26:56.824Z,7.97
2023-01-29T10:29:23.915Z,10.63
2023-01-29T10:31:53.302Z,13.13
2023-01-29T10:34:35.843Z,10.63
2023-01-29T10:37:02.950Z,11.07
2023-01-29T10:39:30.593Z,16.37
2023-01-29T10:42:12.937Z,5.97
2023-01-29T10:45:01.484Z,11.63
2023-01-29T10:47:30.385Z,9.73
2023-01-29T10:50:04.567Z,9.93
2023-01-29T10:52:50.425Z,7.47
2023-01-29T10:55:31.424Z,5.73
2023-01-29T10:58:17.323Z,6.70
2023-01-29T11:00:44.459Z,6.67
2023-01-29T11:03:27.328Z,6.30
2023-01-29T11:06:04.202Z,6.77
2023-01-29T11:08:43.230Z,6.83
2023-01-29T11:11:13.348Z,6.23
2023-01-29T11:13:45.659Z,5.80
2023-01-29T11:16:12.791Z,6.40
2023-01-29T11:18:49.301Z,7.50
2023-01-29T11:21:16.433Z,7.10
2023-01-29T11:23:43.562Z,7.60
2023-01-29T11:26:12.417Z,8.83
2023-01-29T11:28:39.652Z,8.10
2023-01-29T11:31:26.042Z,6.13
2023-01-29T11:33:54.406Z,6.63
2023-01-29T11:36:32.967Z,5.67
2023-01-29T11:39:09.253Z,6.90
2023-01-29T11:41:46.401Z,7.37
2023-01-29T11:44:25.127Z,7.00
2023-01-29T11:46:52.308Z,6.77
2023-01-29T11:49:29.260Z,5.60
2023-01-29T11:51:56.515Z,5.83
2023-01-29T11:54:23.928Z,6.33
2023-01-29T11:56:51.795Z,6.20
2023-01-29T11:59:25.140Z,6.50
2023-01-29T12:01:52.256Z,7.40
2023-01-29T12:04:20.537Z,6.93
2023-01-29T12:06:48.498Z,6.87
2023-01-29T12:09:19.428Z,6.20
2023-01-29T12:11:46.573Z,7.03
2023-01-29T12:14:25.066Z,6.37
2023-01-29T12:17:09.661Z,6.60
2023-01-29T12:19:44.979Z,6.90
2023-01-29T12:22:19.458Z,10.33
2023-01-29T12:24:52.680Z,6.80
2023-01-29T12:27:31.738Z,5.97
2023-01-29T12:30:04.830Z,6.67
2023-01-29T12:32:31.972Z,6.43
2023-01-29T12:35:05.113Z,7.20
2023-01-29T12:37:40.632Z,7.20
2023-01-29T12:40:17.437Z,6.60
2023-01-29T12:42:52.747Z,7.10
2023-01-29T12:45:20.496Z,8.00
2023-01-29T12:48:01.513Z,188.03
2023-01-29T12:50:29.385Z,25.20
2023-01-29T12:53:15.253Z,286.37
2023-01-29T12:55:43.519Z,87.50
2023-01-29T12:58:12.562Z,32.30
2023-01-29T13:00:40.760Z,15.83
2023-01-29T13:03:17.391Z,10.93
2023-01-29T13:06:04.868Z,13.00
2023-01-29T13:08:39.647Z,7.77
2023-01-29T13:11:14.410Z,8.83
2023-01-29T13:13:41.554Z,8.43
2023-01-29T13:16:10.841Z,8.00
2023-01-29T13:18:42.516Z,9.77
2023-01-29T13:21:17.075Z,9.27
2023-01-29T13:23:45.020Z,8.20
2023-01-29T13:26:14.051Z,8.23
2023-01-29T13:28:41.353Z,9.47
2023-01-29T13:31:31.939Z,9.63
2023-01-29T13:34:37.512Z,8.97
2023-01-29T13:37:10.001Z,9.77
2023-01-29T13:39:46.780Z,10.03
2023-01-29T13:42:17.097Z,9.30
2023-01-29T13:44:44.425Z,11.33
2023-01-29T13:47:12.249Z,11.43
2023-01-29T13:49:42.494Z,12.20
2023-01-29T13:52:26.962Z,10.30
2023-01-29T13:54:57.300Z,11.40
2023-01-29T13:57:44.763Z,10.53
2023-01-29T14:00:17.816Z,15.17
2023-01-29T14:02:45.062Z,8.10
2023-01-29T14:05:30.567Z,11.67
2023-01-29T14:07:59.262Z,17.20
2023-01-29T14:10:27.099Z,19.70
2023-01-29T14:12:55.512Z,16.43
2023-01-29T14:15:23.013Z,10.73
2023-01-29T14:17:56.164Z,12.30
2023-01-29T14:20:43.195Z,11.63
2023-01-29T14:23:20.871Z,16.97
2023-01-29T14:25:48.043Z,10.93
2023-01-29T14:28:16.005Z,12.17
2023-01-29T14:30:46.018Z,16.93
2023-01-29T14:33:31.947Z,21.57
2023-01-29T14:35:59.244Z,22.00
2023-01-29T14:38:27.178Z,20.10
2023-01-29T14:41:02.748Z,18.60
2023-01-29T14:43:29.953Z,13.47
2023-01-29T14:45:57.102Z,12.83
2023-01-29T14:48:37.913Z,13.47
2023-01-29T14:51:11.857Z,12.63
2023-01-29T14:53:42.031Z,12.60
2023-01-29T14:56:14.267Z,16.70
2023-01-29T14:58:48.658Z,15.03
2023-01-29T15:01:35.191Z,16.53
2023-01-29T15:04:05.977Z,33.70
2023-01-29T15:06:36.345Z,31.70
2023-01-29T15:09:05.470Z,34.47
2023-01-29T15:11:45.197Z,49.70
2023-01-29T15:14:23.772Z,61.50
2023-01-29T15:16:56.366Z,46.33
2023-01-29T15:19:35.600Z,45.57
2023-01-29T15:22:09.630Z,29.67
2023-01-29T15:24:37.301Z,28.90
2023-01-29T15:27:04.461Z,22.13
2023-01-29T15:29:31.703Z,21.03
2023-01-29T15:31:59.430Z,19.97
2023-01-29T15:34:26.623Z,19.20
2023-01-29T15:36:53.762Z,16.87
2023-01-29T15:39:22.713Z,17.97
2023-01-29T15:41:51.695Z,15.73
2023-01-29T15:44:22.497Z,14.20
2023-01-29T15:46:51.087Z,16.10
2023-01-29T15:49:38.508Z,24.37
2023-01-29T15:52:09.235Z,19.83
2023-01-29T15:54:36.400Z,67.63
2023-01-29T15:57:03.664Z,36.13
2023-01-29T15:59:34.485Z,28.40
2023-01-29T16:02:40.350Z,24.50
2023-01-29T16:05:08.627Z,25.43
2023-01-29T16:07:35.773Z,23.00
2023-01-29T16:10:02.938Z,22.53
2023-01-29T16:12:30.063Z,28.33
2023-01-29T16:14:57.381Z,25.07
2023-01-29T16:17:29.002Z,29.60
2023-01-29T16:19:59.561Z,20.50
2023-01-29T16:22:33.855Z,21.80
2023-01-29T16:25:08.330Z,26.90
2023-01-29T16:27:35.502Z,27.23
2023-01-29T16:30:03.107Z,20.53
2023-01-29T16:32:30.722Z,20.83
2023-01-29T16:34:59.065Z,18.40
2023-01-29T16:37:27.351Z,15.27
2023-01-29T16:39:54.458Z,16.37
2023-01-29T16:42:22.836Z,16.20
2023-01-29T16:44:53.006Z,16.33
2023-01-29T16:47:24.389Z,16.37
2023-01-29T16:49:51.994Z,18.87
2023-01-29T16:52:29.482Z,15.30
2023-01-29T16:55:00.578Z,15.33
2023-01-29T16:57:28.895Z,17.03
2023-01-29T16:59:56.708Z,17.10
2023-01-29T17:02:23.866Z,23.27
2023-01-29T17:04:51.911Z,29.40
2023-01-29T17:07:22.408Z,30.87
2023-01-29T17:09:51.836Z,27.30
2023-01-29T17:12:20.102Z,30.80
2023-01-29T17:14:57.151Z,36.53
2023-01-29T17:17:29.579Z,45.10
2023-01-29T17:19:56.935Z,44.93
2023-01-29T17:22:24.107Z,49.50
2023-01-29T17:24:51.561Z,67.07
2023-01-29T17:27:22.351Z,89.00
2023-01-29T17:29:49.683Z,111.33
2023-01-29T17:32:19.978Z,111.43
2023-01-29T17:34:47.171Z,105.90
2023-01-29T17:37:15.355Z,94.47
2023-01-29T17:39:43.140Z,71.77
2023-01-29T17:42:16.447Z,68.10
2023-01-29T17:44:43.614Z,62.50
2023-01-29T17:47:15.100Z,62.00
2023-01-29T17:49:42.403Z,64.63
2023-01-29T17:52:09.692Z,60.50
2023-01-29T17:54:36.869Z,64.70
2023-01-29T17:57:04.099Z,52.93
2023-01-29T17:59:32.207Z,46.40
2023-01-29T18:01:59.528Z,51.40
2023-01-29T18:04:26.954Z,50.73
2023-01-29T18:06:54.365Z,53.83
2023-01-29T18:09:21.725Z,50.50
2023-01-29T18:11:49.418Z,65.40
2023-01-29T18:14:16.557Z,68.53
2023-01-29T18:16:43.980Z,64.07
2023-01-29T18:19:19.792Z,59.67
2023-01-29T18:21:47.108Z,61.40
2023-01-29T18:24:14.238Z,70.90
2023-01-29T18:26:41.486Z,74.60
2023-01-29T18:29:08.704Z,70.90
2023-01-29T18:31:35.918Z,66.57
2023-01-29T18:34:03.127Z,64.63
2023-01-29T18:36:30.392Z,73.63
2023-01-29T18:38:57.948Z,67.90
2023-01-29T18:41:25.113Z,66.93
2023-01-29T18:43:52.907Z,70.40
2023-01-29T18:46:20.413Z,80.13
2023-01-29T18:48:47.571Z,87.63
2023-01-29T18:51:14.732Z,89.00
2023-01-29T18:53:41.849Z,78.27
2023-01-29T18:56:09.074Z,70.83
2023-01-29T18:58:36.726Z,63.40
2023-01-29T19:01:10.088Z,58.23
2023-01-29T19:03:37.548Z,63.33
2023-01-29T19:06:04.966Z,53.17
2023-01-29T19:08:32.211Z,44.47
2023-01-29T19:11:02.385Z,45.00
2023-01-29T19:13:30.046Z,41.00
2023-01-29T19:15:57.311Z,43.50
2023-01-29T19:18:26.103Z,43.93
2023-01-29T19:20:53.482Z,49.20
2023-01-29T19:23:20.776Z,51.50
2023-01-29T19:25:47.946Z,48.73
2023-01-29T19:28:15.306Z,46.57
2023-01-29T19:30:42.548Z,43.03
2023-01-29T19:33:10.345Z,45.40
2023-01-29T19:35:37.485Z,42.80
2023-01-29T19:38:04.838Z,36.53
2023-01-29T19:40:32.089Z,38.57
2023-01-29T19:42:59.475Z,37.73
2023-01-29T19:45:43.099Z,42.63
2023-01-29T19:48:14.535Z,47.50
2023-01-29T19:50:41.758Z,50.17
2023-01-29T19:53:08.885Z,49.83
2023-01-29T19:55:36.000Z,50.27
2023-01-29T19:58:04.744Z,59.23
2023-01-29T20:00:31.961Z,65.53
2023-01-29T20:02:59.103Z,61.90
2023-01-29T20:05:27.133Z,60.83
2023-01-29T20:07:54.340Z,50.53
2023-01-29T20:10:21.614Z,47.40
2023-01-29T20:12:48.790Z,42.50
2023-01-29T20:15:16.109Z,41.23
2023-01-29T20:17:45.475Z,41.13
2023-01-29T20:20:12.725Z,39.40
2023-01-29T20:22:39.881Z,37.13
2023-01-29T20:25:07.272Z,39.50
2023-01-29T20:27:34.559Z,38.13
2023-01-29T20:30:01.678Z,39.67
2023-01-29T20:32:29.875Z,32.87
2023-01-29T20:34:57.007Z,34.43
2023-01-29T20:37:24.149Z,23.53
2023-01-29T20:39:51.261Z,17.10
2023-01-29T20:42:20.501Z,15.17
2023-01-29T20:44:47.644Z,15.17
2023-01-29T20:47:14.769Z,40.37
2023-01-29T20:49:41.975Z,44.83
2023-01-29T20:52:10.741Z,31.03
2023-01-29T20:54:37.888Z,16.60
2023-01-29T20:57:05.286Z,14.60
2023-01-29T20:59:32.440Z,14.33
2023-01-29T21:01:59.626Z,13.87
2023-01-29T21:04:27.370Z,14.77
2023-01-29T21:06:54.654Z,16.20
2023-01-29T21:09:21.809Z,17.43
2023-01-29T21:11:48.979Z,18.43
2023-01-29T21:14:16.115Z,21.90
2023-01-29T21:16:43.360Z,18.57
2023-01-29T21:19:10.694Z,20.50
2023-01-29T21:21:37.824Z,17.93
2023-01-29T21:24:04.996Z,23.43
2023-01-29T21:26:32.288Z,24.03
2023-01-29T21:28:59.430Z,24.40
2023-01-29T21:31:26.701Z,28.00
2023-01-29T21:33:53.896Z,20.40
2023-01-29T21:36:21.034Z,24.10
2023-01-29T21:38:48.209Z,27.53
2023-01-29T21:41:15.375Z,21.57
2023-01-29T21:43:42.503Z,34.13
2023-01-29T21:46:11.723Z,30.97
2023-01-29T21:48:39.496Z,22.03
2023-01-29T21:51:06.713Z,26.07
2023-01-29T21:53:33.883Z,24.67
2023-01-29T21:56:01.697Z,26.07
2023-01-29T21:58:28.947Z,20.47
2023-01-29T22:00:56.162Z,18.87
2023-01-29T22:03:23.480Z,18.57
2023-01-29T22:05:50.589Z,21.93
2023-01-29T22:08:18.336Z,18.57
2023-01-29T22:10:45.670Z,19.97
2023-01-29T22:13:13.654Z,28.87
2023-01-29T22:15:40.990Z,42.10
2023-01-29T22:18:08.148Z,39.87
2023-01-29T22:20:36.654Z,41.67
2023-01-29T22:23:03.782Z,42.47
2023-01-29T22:25:32.188Z,41.13
2023-01-29T22:27:59.348Z,45.50
2023-01-29T22:30:27.069Z,160.90
2023-01-29T22:32:54.272Z,210.33
2023-01-29T22:35:21.434Z,177.67
2023-01-29T22:37:48.617Z,83.90
2023-01-29T22:40:16.111Z,50.83
2023-01-29T22:42:43.357Z,60.03
2023-01-29T22:45:10.714Z,38.73
2023-01-29T22:47:38.192Z,20.93
2023-01-29T22:50:06.139Z,16.97
2023-01-29T22:52:38.610Z,16.13
2023-01-29T22:55:07.735Z,17.50
2023-01-29T22:57:34.903Z,31.80
2023-01-29T23:00:02.097Z,37.87
2023-01-29T23:02:29.228Z,38.00
2023-01-29T23:04:56.357Z,40.00
2023-01-29T23:07:23.553Z,38.97
2023-01-29T23:09:50.661Z,35.90
2023-01-29T23:12:17.806Z,32.03
2023-01-29T23:14:44.978Z,39.90
2023-01-29T23:17:12.138Z,42.23
2023-01-29T23:19:39.256Z,46.07
2023-01-29T23:22:06.441Z,48.27
2023-01-29T23:24:33.614Z,45.60
2023-01-29T23:27:15.763Z,45.10
2023-01-29T23:29:43.629Z,46.73
2023-01-29T23:32:11.194Z,47.23
2023-01-29T23:34:38.398Z,46.40
2023-01-29T23:37:06.664Z,46.27
2023-01-29T23:39:33.838Z,46.23
2023-01-29T23:42:01.029Z,45.77
2023-01-29T23:44:28.172Z,46.33
2023-01-29T23:46:55.441Z,46.20
2023-01-29T23:49:22.647Z,44.83
2023-01-29T23:51:50.193Z,43.03
2023-01-29T23:54:17.596Z,42.63
2023-01-29T23:56:44.906Z,37.20
2023-01-29T23:59:12.090Z,31.27
